Pigeon Cove, Massachusetts
Current Conditions -  °F | °C
As of 6:53 PM on Friday 24 Oct 2014 (Local Time) from KBVY Reporting Station
Overcast Overcast  
Wind Chill: 50°   Ceiling: 3600
Heat Index: 50°   Visibility: 10mi
Dew Point: 43°   Wind: 7mph
Humidity: 77%   Direction: 300°WNW
Pressure: 29.71"   Gusts: NA
Location:  42.6548°N, 70.6236°W
Report Text: KBVY 242253Z 30006KT 10SM BKN036 OVC050 10/06 A2971 RMK AO2 SLP057 T01000061
Loading
Personal Weather Stations






























Interactive Weather Map
Tropical Storm Tracking
New forecast layout! Learn more

10-Day Weather Forecast

Advertisements
Track Severe Weather on mobile